createdAt,value
2022-09-28T00:01:24.223Z,65.80
2022-09-28T00:03:59.680Z,65.90
2022-09-28T00:06:30.192Z,65.90
2022-09-28T00:08:57.688Z,65.80
2022-09-28T00:11:28.126Z,65.80
2022-09-28T00:14:01.868Z,65.90
2022-09-28T00:16:31.563Z,66.10
2022-09-28T00:18:58.845Z,66.10
2022-09-28T00:21:28.797Z,66.00
2022-09-28T00:24:13.122Z,66.10
2022-09-28T00:26:41.204Z,66.10
2022-09-28T00:29:16.158Z,66.10
2022-09-28T00:31:43.352Z,66.10
2022-09-28T00:34:10.347Z,66.10
2022-09-28T00:36:37.219Z,66.10
2022-09-28T00:39:08.251Z,66.20
2022-09-28T00:41:35.827Z,66.20
2022-09-28T00:44:40.099Z,66.30
2022-09-28T00:47:19.810Z,66.30
2022-09-28T00:50:02.917Z,66.30
2022-09-28T00:52:38.651Z,66.20
2022-09-28T00:55:09.583Z,66.20
2022-09-28T00:57:39.716Z,66.20
2022-09-28T01:00:07.612Z,66.30
2022-09-28T01:02:35.187Z,66.30
2022-09-28T01:05:05.337Z,66.40
2022-09-28T01:07:33.506Z,66.30
2022-09-28T01:10:00.772Z,66.50
2022-09-28T01:12:27.705Z,66.60
2022-09-28T01:14:54.596Z,66.60
2022-09-28T01:17:39.873Z,66.70
2022-09-28T01:20:15.532Z,66.70
2022-09-28T01:22:54.548Z,66.60
2022-09-28T01:25:27.527Z,66.60
2022-09-28T01:28:06.574Z,66.60
2022-09-28T01:30:55.778Z,66.60
2022-09-28T01:33:27.032Z,66.60
2022-09-28T01:35:59.748Z,67.40
2022-09-28T01:38:33.796Z,66.50
2022-09-28T01:41:01.105Z,66.50
2022-09-28T01:43:30.223Z,66.60
2022-09-28T01:46:01.891Z,66.70
2022-09-28T01:48:57.862Z,66.70
2022-09-28T01:51:46.550Z,66.60
2022-09-28T01:54:18.062Z,66.70
2022-09-28T01:56:55.828Z,66.90
2022-09-28T01:59:29.524Z,67.00
2022-09-28T02:02:18.697Z,66.90
2022-09-28T02:04:51.828Z,66.90
2022-09-28T02:07:24.287Z,66.90
2022-09-28T02:09:59.538Z,66.80
2022-09-28T02:12:48.475Z,66.90
2022-09-28T02:15:17.590Z,67.00
2022-09-28T02:17:45.982Z,67.10
2022-09-28T02:20:16.284Z,67.20
2022-09-28T02:22:53.277Z,67.10
2022-09-28T02:25:28.476Z,67.10
2022-09-28T02:28:15.798Z,67.20
2022-09-28T02:30:44.539Z,67.10
2022-09-28T02:33:21.766Z,67.00
2022-09-28T02:35:48.850Z,67.10
2022-09-28T02:38:17.178Z,66.90
2022-09-28T02:41:16.806Z,66.90
2022-09-28T02:44:12.436Z,66.80
2022-09-28T02:46:44.260Z,66.90
2022-09-28T02:49:53.522Z,66.90
2022-09-28T02:52:29.422Z,66.90
2022-09-28T02:55:18.017Z,67.00
2022-09-28T02:58:15.919Z,67.00
2022-09-28T03:01:13.618Z,67.10
2022-09-28T03:03:53.135Z,67.90
2022-09-28T03:06:36.876Z,67.10
2022-09-28T03:09:22.865Z,67.00
2022-09-28T03:11:55.397Z,67.00
2022-09-28T03:14:22.867Z,67.00
2022-09-28T03:16:53.534Z,66.90
2022-09-28T03:19:24.808Z,66.90
2022-09-28T03:21:52.315Z,67.00
2022-09-28T03:24:19.199Z,67.00
2022-09-28T03:26:46.322Z,67.00
2022-09-28T03:29:14.155Z,67.10
2022-09-28T03:31:43.926Z,67.20
2022-09-28T03:34:10.944Z,67.20
2022-09-28T03:36:37.784Z,67.10
2022-09-28T03:39:04.763Z,66.90
2022-09-28T03:41:31.603Z,66.70
2022-09-28T03:43:58.573Z,66.80
2022-09-28T03:46:28.129Z,66.80
2022-09-28T03:48:59.288Z,66.70
2022-09-28T03:51:26.702Z,66.70
2022-09-28T03:53:53.785Z,66.80
2022-09-28T03:56:21.221Z,66.70
2022-09-28T03:58:48.050Z,66.60
2022-09-28T04:01:17.598Z,66.50
2022-09-28T04:03:47.071Z,66.50
2022-09-28T04:06:15.014Z,66.60
2022-09-28T04:08:43.404Z,66.40
2022-09-28T04:11:10.691Z,66.40
2022-09-28T04:13:37.598Z,66.30
2022-09-28T04:16:06.988Z,66.40
2022-09-28T04:18:35.466Z,66.40
2022-09-28T04:21:13.381Z,66.40
2022-09-28T04:23:46.203Z,66.60
2022-09-28T04:26:19.684Z,66.60
2022-09-28T04:29:07.132Z,66.50
2022-09-28T04:31:49.710Z,66.70
2022-09-28T04:34:23.063Z,66.70
2022-09-28T04:36:50.480Z,66.50
2022-09-28T04:39:19.363Z,66.60
2022-09-28T04:41:52.777Z,66.70
2022-09-28T04:44:19.629Z,66.70
2022-09-28T04:46:47.743Z,67.00
2022-09-28T04:49:30.007Z,67.00
2022-09-28T04:52:18.564Z,67.00
2022-09-28T04:54:48.606Z,67.20
2022-09-28T04:57:16.451Z,67.30
2022-09-28T04:59:43.369Z,68.20
2022-09-28T05:02:10.754Z,67.30
2022-09-28T05:05:12.999Z,67.20
2022-09-28T05:08:07.062Z,67.10
2022-09-28T05:10:34.697Z,67.10
2022-09-28T05:13:02.763Z,67.20
2022-09-28T05:15:31.039Z,67.20
2022-09-28T05:17:59.847Z,68.00
2022-09-28T05:20:47.753Z,67.00
2022-09-28T05:23:15.601Z,67.00
2022-09-28T05:25:43.763Z,66.90
2022-09-28T05:28:29.038Z,66.80
2022-09-28T05:31:14.292Z,66.90
2022-09-28T05:34:04.075Z,66.60
2022-09-28T05:36:32.659Z,66.70
2022-09-28T05:38:59.606Z,66.80
2022-09-28T05:41:26.529Z,66.90
2022-09-28T05:43:54.966Z,66.90
2022-09-28T05:46:23.807Z,66.90
2022-09-28T05:48:52.656Z,66.90
2022-09-28T05:51:19.924Z,66.80
2022-09-28T05:53:47.049Z,66.70
2022-09-28T05:56:18.772Z,66.60
2022-09-28T05:58:45.879Z,66.60
2022-09-28T06:01:13.844Z,66.40
2022-09-28T06:03:40.760Z,66.50
2022-09-28T06:06:07.806Z,66.60
2022-09-28T06:08:34.699Z,66.60
2022-09-28T06:11:25.210Z,66.30
2022-09-28T06:13:55.738Z,66.70
2022-09-28T06:16:23.654Z,67.40
2022-09-28T06:18:51.731Z,66.60
2022-09-28T06:21:24.115Z,66.70
2022-09-28T06:23:50.956Z,66.90
2022-09-28T06:26:18.844Z,67.10
2022-09-28T06:28:46.083Z,68.00
2022-09-28T06:31:13.076Z,67.10
2022-09-28T06:33:49.399Z,67.20
2022-09-28T06:36:17.950Z,67.20
2022-09-28T06:38:45.335Z,67.20
2022-09-28T06:41:14.212Z,67.00
2022-09-28T06:43:42.015Z,67.80
2022-09-28T06:46:27.535Z,67.80
2022-09-28T06:49:17.312Z,68.80
2022-09-28T06:52:05.097Z,68.50
2022-09-28T06:54:50.204Z,67.80
2022-09-28T06:57:29.550Z,65.70
2022-09-28T06:59:56.561Z,63.90
2022-09-28T07:02:23.525Z,63.20
2022-09-28T07:05:26.753Z,61.40
2022-09-28T07:08:13.049Z,59.60
2022-09-28T07:11:06.319Z,57.50
2022-09-28T07:13:51.494Z,56.30
2022-09-28T07:16:26.499Z,54.80
2022-09-28T07:18:55.095Z,53.70
2022-09-28T07:21:28.956Z,53.50
2022-09-28T07:23:59.955Z,53.40
2022-09-28T07:26:48.028Z,51.80
2022-09-28T07:29:32.223Z,51.40
2022-09-28T07:32:34.461Z,50.40
2022-09-28T07:35:22.314Z,50.00
2022-09-28T07:38:01.560Z,49.50
2022-09-28T07:40:48.501Z,49.10
2022-09-28T07:43:20.852Z,48.70
2022-09-28T07:45:54.923Z,48.00
2022-09-28T07:48:22.683Z,47.20
2022-09-28T07:51:00.761Z,46.60
2022-09-28T07:53:33.841Z,46.10
2022-09-28T07:56:17.389Z,46.10
2022-09-28T07:58:53.882Z,46.40
2022-09-28T08:01:39.105Z,46.90
2022-09-28T08:04:07.998Z,47.80
2022-09-28T08:06:37.430Z,48.70
2022-09-28T08:09:05.890Z,49.60
2022-09-28T08:11:51.319Z,49.10
2022-09-28T08:14:37.478Z,49.60
2022-09-28T08:17:30.718Z,50.20
2022-09-28T08:20:18.463Z,49.80
2022-09-28T08:22:45.282Z,50.90
2022-09-28T08:25:12.395Z,52.70
2022-09-28T08:27:39.247Z,52.40
2022-09-28T08:30:06.786Z,53.40
2022-09-28T08:33:07.708Z,53.40
2022-09-28T08:35:43.966Z,54.60
2022-09-28T08:38:32.739Z,53.20
2022-09-28T08:41:42.991Z,51.40
2022-09-28T08:44:24.337Z,51.00
2022-09-28T08:47:33.583Z,49.70
2022-09-28T08:50:25.580Z,50.10
2022-09-28T08:53:49.660Z,49.60
2022-09-28T08:56:31.516Z,49.70
2022-09-28T08:59:04.693Z,50.30
2022-09-28T09:01:38.675Z,50.00
2022-09-28T09:04:08.841Z,50.20
2022-09-28T09:07:02.819Z,51.00
2022-09-28T09:09:42.508Z,49.80
2022-09-28T09:12:48.075Z,49.40
2022-09-28T09:15:40.590Z,49.10
2022-09-28T09:18:43.637Z,49.30
2022-09-28T09:22:00.431Z,48.50
2022-09-28T09:24:51.888Z,46.90
2022-09-28T09:28:05.625Z,46.50
2022-09-28T09:30:48.590Z,45.30
2022-09-28T09:33:46.707Z,44.30
2022-09-28T09:36:41.205Z,43.80
2022-09-28T09:39:31.026Z,42.70
2022-09-28T09:42:41.220Z,41.20
2022-09-28T09:45:54.978Z,42.00
2022-09-28T09:48:44.642Z,41.90
2022-09-28T09:51:37.529Z,40.80
2022-09-28T09:54:11.546Z,40.30
2022-09-28T09:56:44.032Z,40.90
2022-09-28T09:59:33.900Z,40.10
2022-09-28T10:02:22.062Z,40.30
2022-09-28T10:05:05.008Z,40.00
2022-09-28T10:07:58.322Z,39.40
2022-09-28T10:10:33.143Z,39.30
2022-09-28T10:13:11.890Z,41.60
2022-09-28T10:15:41.766Z,40.40
2022-09-28T10:18:22.763Z,37.70
2022-09-28T10:21:16.711Z,37.70
2022-09-28T10:24:02.748Z,37.50
2022-09-28T10:26:40.356Z,36.80
2022-09-28T10:29:19.942Z,38.20
2022-09-28T10:31:51.155Z,36.90
2022-09-28T10:34:38.302Z,36.90
2022-09-28T10:37:13.156Z,38.60
2022-09-28T10:40:00.467Z,36.70
2022-09-28T10:42:33.768Z,35.00
2022-09-28T10:45:23.377Z,36.40
2022-09-28T10:47:51.098Z,37.20
2022-09-28T10:50:23.298Z,38.60
2022-09-28T10:53:11.798Z,37.30
2022-09-28T10:56:05.200Z,38.00
2022-09-28T10:58:41.950Z,40.10
2022-09-28T11:01:33.531Z,39.50
2022-09-28T11:04:04.650Z,40.10
2022-09-28T11:06:38.023Z,39.40
2022-09-28T11:09:21.253Z,38.40
2022-09-28T11:11:48.703Z,38.60
2022-09-28T11:14:27.444Z,40.70
2022-09-28T11:17:17.762Z,38.80
2022-09-28T11:19:46.320Z,38.50
2022-09-28T11:22:24.331Z,40.00
2022-09-28T11:25:20.141Z,38.80
2022-09-28T11:27:53.227Z,39.30
2022-09-28T11:30:45.511Z,39.30
2022-09-28T11:33:45.044Z,39.30
2022-09-28T11:37:05.747Z,39.00
2022-09-28T11:39:47.891Z,37.80
2022-09-28T11:42:27.014Z,38.00
2022-09-28T11:45:17.427Z,38.10
2022-09-28T11:48:15.631Z,37.00
2022-09-28T11:50:56.721Z,36.60
2022-09-28T11:53:50.287Z,38.40
2022-09-28T11:56:19.775Z,38.60
2022-09-28T11:58:50.852Z,37.80
2022-09-28T12:01:43.801Z,37.80
2022-09-28T12:04:31.957Z,38.50
2022-09-28T12:07:08.707Z,39.50
2022-09-28T12:10:11.682Z,39.80
2022-09-28T12:13:14.679Z,40.70
2022-09-28T12:16:17.457Z,41.10
2022-09-28T12:19:04.485Z,43.10
2022-09-28T12:21:58.455Z,43.50
2022-09-28T12:24:33.325Z,43.90
2022-09-28T12:27:05.927Z,41.60
2022-09-28T12:29:41.637Z,41.60
2022-09-28T12:32:14.602Z,41.90
2022-09-28T12:34:43.215Z,44.00
2022-09-28T12:37:38.792Z,44.50
2022-09-28T12:40:28.751Z,44.10
2022-09-28T12:42:55.543Z,43.40
2022-09-28T12:45:53.083Z,43.50
2022-09-28T12:48:27.361Z,42.50
2022-09-28T12:51:18.497Z,43.70
2022-09-28T12:53:51.367Z,44.50
2022-09-28T12:56:42.437Z,43.10
2022-09-28T12:59:28.269Z,43.80
2022-09-28T13:02:18.534Z,43.90
2022-09-28T13:05:08.686Z,44.00
2022-09-28T13:08:04.497Z,44.70
2022-09-28T13:10:42.113Z,45.50
2022-09-28T13:13:31.349Z,47.30
2022-09-28T13:16:13.711Z,47.30
2022-09-28T13:19:06.431Z,44.30
2022-09-28T13:22:10.863Z,44.90
2022-09-28T13:24:44.343Z,44.70
2022-09-28T13:27:21.840Z,45.10
2022-09-28T13:29:50.353Z,44.90
2022-09-28T13:32:18.923Z,45.90
2022-09-28T13:34:50.422Z,47.00
2022-09-28T13:37:20.469Z,47.90
2022-09-28T13:39:55.185Z,48.30
2022-09-28T13:42:29.231Z,49.20
2022-09-28T13:45:00.206Z,50.00
2022-09-28T13:47:59.313Z,49.90
2022-09-28T13:50:32.148Z,49.50
2022-09-28T13:53:17.202Z,49.70
2022-09-28T13:56:12.041Z,50.10
2022-09-28T13:58:46.715Z,50.20
2022-09-28T14:01:35.873Z,50.50
2022-09-28T14:04:14.009Z,51.00
2022-09-28T14:06:51.380Z,50.50
2022-09-28T14:09:39.199Z,50.80
2022-09-28T14:12:34.967Z,49.70
2022-09-28T14:15:06.484Z,49.40
2022-09-28T14:17:44.839Z,49.30
2022-09-28T14:20:17.536Z,49.60
2022-09-28T14:23:08.916Z,50.70
2022-09-28T14:25:43.069Z,49.20
2022-09-28T14:28:13.011Z,49.10
2022-09-28T14:30:42.922Z,49.70
2022-09-28T14:33:38.790Z,49.00
2022-09-28T14:36:08.329Z,49.40
2022-09-28T14:39:07.221Z,50.00
2022-09-28T14:41:41.808Z,49.50
2022-09-28T14:44:13.548Z,49.30
2022-09-28T14:46:47.483Z,49.50
2022-09-28T14:49:20.250Z,49.80
2022-09-28T14:51:53.215Z,50.40
2022-09-28T14:54:22.155Z,50.70
2022-09-28T14:57:05.006Z,50.70
2022-09-28T14:59:36.095Z,50.90
2022-09-28T15:02:12.417Z,51.60
2022-09-28T15:04:48.591Z,52.70
2022-09-28T15:07:21.297Z,52.60
2022-09-28T15:09:50.480Z,52.50
2022-09-28T15:12:29.132Z,52.20
2022-09-28T15:15:05.590Z,51.90
2022-09-28T15:17:40.261Z,52.10
2022-09-28T15:20:35.260Z,52.70
2022-09-28T15:23:02.253Z,51.70
2022-09-28T15:25:31.668Z,51.50
2022-09-28T15:28:08.054Z,51.00
2022-09-28T15:30:36.688Z,51.40
2022-09-28T15:33:23.491Z,52.10
2022-09-28T15:36:02.058Z,52.30
2022-09-28T15:38:31.284Z,52.40
2022-09-28T15:40:58.669Z,51.40
2022-09-28T15:43:33.010Z,51.50
2022-09-28T15:46:18.409Z,52.00
2022-09-28T15:48:57.155Z,52.10
2022-09-28T15:51:25.641Z,51.90
2022-09-28T15:53:58.797Z,52.80
2022-09-28T15:56:26.432Z,53.00
2022-09-28T15:59:38.107Z,53.70
2022-09-28T16:02:20.734Z,52.30
2022-09-28T16:04:50.583Z,52.20
2022-09-28T16:07:38.455Z,51.20
2022-09-28T16:10:11.342Z,51.70
2022-09-28T16:12:38.176Z,52.30
2022-09-28T16:15:27.759Z,52.40
2022-09-28T16:18:04.868Z,52.70
2022-09-28T16:20:37.359Z,53.80
2022-09-28T16:23:16.362Z,53.30
2022-09-28T16:26:15.797Z,53.20
2022-09-28T16:28:45.945Z,53.90
2022-09-28T16:31:12.849Z,53.90
2022-09-28T16:33:54.050Z,54.00
2022-09-28T16:36:24.731Z,54.20
2022-09-28T16:38:54.333Z,54.40
2022-09-28T16:41:25.969Z,54.50
2022-09-28T16:44:02.288Z,54.50
2022-09-28T16:46:39.189Z,54.70
2022-09-28T16:49:07.111Z,55.20
2022-09-28T16:51:34.236Z,54.80
2022-09-28T16:54:32.745Z,55.00
2022-09-28T16:57:00.555Z,54.70
2022-09-28T16:59:28.406Z,55.00
2022-09-28T17:01:58.568Z,54.50
2022-09-28T17:04:26.569Z,53.90
2022-09-28T17:06:55.519Z,54.50
2022-09-28T17:09:23.150Z,54.50
2022-09-28T17:11:56.963Z,54.90
2022-09-28T17:14:24.624Z,54.90
2022-09-28T17:17:13.756Z,55.10
2022-09-28T17:19:41.131Z,55.10
2022-09-28T17:22:11.283Z,55.00
2022-09-28T17:24:38.328Z,55.30
2022-09-28T17:27:06.899Z,55.60
2022-09-28T17:29:33.814Z,55.80
2022-09-28T17:32:00.783Z,56.10
2022-09-28T17:34:27.642Z,55.80
2022-09-28T17:36:54.731Z,56.10
2022-09-28T17:39:21.660Z,55.90
2022-09-28T17:41:48.667Z,56.00
2022-09-28T17:44:16.383Z,55.90
2022-09-28T17:46:46.259Z,55.90
2022-09-28T17:49:13.428Z,56.10
2022-09-28T17:51:40.523Z,56.30
2022-09-28T17:54:08.324Z,56.30
2022-09-28T17:56:36.335Z,56.30
2022-09-28T17:59:06.846Z,56.70
2022-09-28T18:01:39.159Z,56.70
2022-09-28T18:04:08.733Z,57.00
2022-09-28T18:06:37.194Z,57.50
2022-09-28T18:09:05.482Z,57.80
2022-09-28T18:11:33.876Z,58.00
2022-09-28T18:14:00.924Z,57.90
2022-09-28T18:16:28.994Z,58.30
2022-09-28T18:18:56.312Z,58.60
2022-09-28T18:21:23.297Z,58.70
2022-09-28T18:23:50.210Z,58.70
2022-09-28T18:26:19.544Z,58.80
2022-09-28T18:28:46.719Z,59.00
2022-09-28T18:31:15.766Z,59.00
2022-09-28T18:33:43.360Z,59.00
2022-09-28T18:36:10.302Z,58.90
2022-09-28T18:38:38.207Z,59.00
2022-09-28T18:41:16.438Z,58.90
2022-09-28T18:43:51.647Z,59.00
2022-09-28T18:46:19.037Z,59.00
2022-09-28T18:48:47.711Z,59.20
2022-09-28T18:51:14.985Z,59.00
2022-09-28T18:53:42.256Z,58.80
2022-09-28T18:56:12.004Z,58.90
2022-09-28T18:58:40.488Z,58.80
2022-09-28T19:01:29.065Z,58.70
2022-09-28T19:03:56.410Z,59.00
2022-09-28T19:06:23.406Z,59.00
2022-09-28T19:08:55.699Z,59.20
2022-09-28T19:11:23.416Z,59.10
2022-09-28T19:13:50.723Z,59.10
2022-09-28T19:16:20.936Z,59.30
2022-09-28T19:18:48.483Z,59.30
2022-09-28T19:21:15.750Z,59.40
2022-09-28T19:23:49.015Z,59.60
2022-09-28T19:26:20.844Z,59.70
2022-09-28T19:28:48.359Z,59.50
2022-09-28T19:31:15.956Z,59.70
2022-09-28T19:33:46.281Z,59.60
2022-09-28T19:36:15.812Z,59.80
2022-09-28T19:38:42.730Z,59.80
2022-09-28T19:41:37.822Z,60.00
2022-09-28T19:44:25.359Z,60.20
2022-09-28T19:47:00.549Z,60.50
2022-09-28T19:49:33.207Z,60.50
2022-09-28T19:52:16.615Z,60.60
2022-09-28T19:54:58.101Z,60.80
2022-09-28T19:57:27.692Z,60.70
2022-09-28T19:59:59.234Z,60.60
2022-09-28T20:02:26.343Z,60.50
2022-09-28T20:04:53.153Z,60.40
2022-09-28T20:07:20.770Z,60.30
2022-09-28T20:09:47.898Z,60.80
2022-09-28T20:12:14.754Z,61.20
2022-09-28T20:14:41.576Z,61.50
2022-09-28T20:17:09.171Z,61.60
2022-09-28T20:19:36.068Z,61.60
2022-09-28T20:22:03.442Z,61.80
2022-09-28T20:24:31.293Z,61.90
2022-09-28T20:26:58.871Z,62.10
2022-09-28T20:29:26.720Z,62.20
2022-09-28T20:31:53.625Z,62.20
2022-09-28T20:34:20.571Z,62.20
2022-09-28T20:36:48.259Z,62.30
2022-09-28T20:39:15.229Z,62.20
2022-09-28T20:41:42.369Z,62.20
2022-09-28T20:44:10.008Z,62.20
2022-09-28T20:46:38.229Z,62.10
2022-09-28T20:49:07.119Z,62.00
2022-09-28T20:51:34.017Z,62.00
2022-09-28T20:54:01.059Z,62.20
2022-09-28T20:56:28.987Z,62.20
2022-09-28T20:58:56.901Z,62.30
2022-09-28T21:01:29.877Z,62.20
2022-09-28T21:04:01.837Z,62.20
2022-09-28T21:06:30.973Z,62.30
2022-09-28T21:08:58.481Z,62.30
2022-09-28T21:11:26.960Z,62.20
2022-09-28T21:13:57.072Z,61.90
2022-09-28T21:16:24.913Z,61.80
2022-09-28T21:18:52.186Z,61.90
2022-09-28T21:21:21.236Z,61.80
2022-09-28T21:23:48.865Z,61.80
2022-09-28T21:26:25.027Z,62.40
2022-09-28T21:29:00.383Z,61.40
2022-09-28T21:31:32.767Z,61.40
2022-09-28T21:33:59.839Z,61.50
2022-09-28T21:36:26.751Z,61.60
2022-09-28T21:38:55.030Z,62.00
2022-09-28T21:41:22.295Z,61.90
2022-09-28T21:43:49.141Z,61.80
2022-09-28T21:46:17.474Z,61.90
2022-09-28T21:48:44.563Z,61.80
2022-09-28T21:51:14.039Z,61.60
2022-09-28T21:53:40.919Z,61.50
2022-09-28T21:56:10.390Z,61.60
2022-09-28T21:58:37.481Z,61.60
2022-09-28T22:01:08.983Z,62.40
2022-09-28T22:03:36.971Z,61.60
2022-09-28T22:06:05.282Z,61.50
2022-09-28T22:08:33.404Z,61.50
2022-09-28T22:11:10.365Z,61.60
2022-09-28T22:13:44.380Z,62.80
2022-09-28T22:16:12.275Z,62.50
2022-09-28T22:18:39.698Z,63.60
2022-09-28T22:21:27.171Z,62.80
2022-09-28T22:23:54.170Z,62.90
2022-09-28T22:26:24.659Z,63.10
2022-09-28T22:29:00.283Z,63.10
2022-09-28T22:31:30.096Z,62.80
2022-09-28T22:33:57.698Z,62.60
2022-09-28T22:36:25.865Z,62.70
2022-09-28T22:38:53.958Z,62.70
2022-09-28T22:41:21.266Z,63.10
2022-09-28T22:43:49.716Z,62.90
2022-09-28T22:46:22.310Z,62.30
2022-09-28T22:48:54.256Z,61.90
2022-09-28T22:51:22.031Z,61.70
2022-09-28T22:53:48.967Z,61.20
2022-09-28T22:56:18.728Z,61.10
2022-09-28T22:58:46.310Z,61.40
2022-09-28T23:01:31.038Z,61.70
2022-09-28T23:03:59.295Z,62.10
2022-09-28T23:06:29.012Z,62.90
2022-09-28T23:08:56.086Z,63.00
2022-09-28T23:11:23.196Z,62.70
2022-09-28T23:13:54.331Z,62.40
2022-09-28T23:16:23.442Z,62.20
2022-09-28T23:18:50.520Z,62.20
2022-09-28T23:21:20.881Z,62.20
2022-09-28T23:23:55.842Z,62.10
2022-09-28T23:26:25.737Z,62.40
2022-09-28T23:28:53.668Z,62.50
2022-09-28T23:31:31.887Z,62.50
2022-09-28T23:34:00.945Z,62.20
2022-09-28T23:36:27.900Z,62.20
2022-09-28T23:38:55.194Z,62.20
2022-09-28T23:41:22.156Z,62.10
2022-09-28T23:43:49.062Z,61.90
2022-09-28T23:46:20.526Z,61.90
2022-09-28T23:48:48.456Z,61.60
2022-09-28T23:51:15.354Z,61.60
2022-09-28T23:53:43.227Z,61.40
2022-09-28T23:56:10.224Z,61.30
2022-09-28T23:58:37.160Z,61.40
